sensor_id;sensor_type;location;lat;lon;timestamp;P1;durP1;ratioP1;P2;durP2;ratioP2
27383;SDS011;14851;51.166;4.760;2023-06-10T00:01:53;8.02;;;6.20;;
27383;SDS011;14851;51.166;4.760;2023-06-10T00:04:25;8.75;;;6.47;;
27383;SDS011;14851;51.166;4.760;2023-06-10T00:06:52;6.68;;;5.72;;
27383;SDS011;14851;51.166;4.760;2023-06-10T00:09:20;7.20;;;6.50;;
27383;SDS011;14851;51.166;4.760;2023-06-10T00:11:47;9.30;;;6.88;;
27383;SDS011;14851;51.166;4.760;2023-06-10T00:14:15;8.57;;;6.63;;
27383;SDS011;14851;51.166;4.760;2023-06-10T00:16:41;8.40;;;6.25;;
27383;SDS011;14851;51.166;4.760;2023-06-10T00:19:10;7.05;;;6.35;;
27383;SDS011;14851;51.166;4.760;2023-06-10T00:21:38;10.60;;;6.82;;
27383;SDS011;14851;51.166;4.760;2023-06-10T00:24:05;6.63;;;5.95;;
27383;SDS011;14851;51.166;4.760;2023-06-10T00:26:35;8.52;;;7.03;;
27383;SDS011;14851;51.166;4.760;2023-06-10T00:29:00;11.40;;;6.45;;
27383;SDS011;14851;51.166;4.760;2023-06-10T00:31:29;10.50;;;6.20;;
27383;SDS011;14851;51.166;4.760;2023-06-10T00:33:55;7.90;;;6.22;;
27383;SDS011;14851;51.166;4.760;2023-06-10T00:36:23;8.32;;;6.28;;
27383;SDS011;14851;51.166;4.760;2023-06-10T00:38:49;9.45;;;6.65;;
27383;SDS011;14851;51.166;4.760;2023-06-10T00:41:15;7.05;;;6.35;;
27383;SDS011;14851;51.166;4.760;2023-06-10T00:43:41;7.78;;;6.97;;
27383;SDS011;14851;51.166;4.760;2023-06-10T00:46:07;10.50;;;6.43;;
27383;SDS011;14851;51.166;4.760;2023-06-10T00:48:39;8.25;;;6.13;;
27383;SDS011;14851;51.166;4.760;2023-06-10T00:51:06;7.93;;;5.90;;
27383;SDS011;14851;51.166;4.760;2023-06-10T00:53:34;10.45;;;6.70;;
27383;SDS011;14851;51.166;4.760;2023-06-10T00:56:02;10.88;;;7.18;;
27383;SDS011;14851;51.166;4.760;2023-06-10T00:58:29;8.50;;;6.63;;
27383;SDS011;14851;51.166;4.760;2023-06-10T01:00:55;9.82;;;6.97;;
27383;SDS011;14851;51.166;4.760;2023-06-10T01:03:20;8.20;;;6.47;;
27383;SDS011;14851;51.166;4.760;2023-06-10T01:05:48;7.45;;;6.75;;
27383;SDS011;14851;51.166;4.760;2023-06-10T01:08:33;8.07;;;6.40;;
27383;SDS011;14851;51.166;4.760;2023-06-10T01:11:07;9.48;;;6.47;;
27383;SDS011;14851;51.166;4.760;2023-06-10T01:13:41;8.65;;;6.63;;
27383;SDS011;14851;51.166;4.760;2023-06-10T01:16:10;9.43;;;7.10;;
27383;SDS011;14851;51.166;4.760;2023-06-10T01:18:40;7.65;;;6.75;;
27383;SDS011;14851;51.166;4.760;2023-06-10T01:21:12;9.10;;;6.85;;
27383;SDS011;14851;51.166;4.760;2023-06-10T01:23:52;7.97;;;6.90;;
27383;SDS011;14851;51.166;4.760;2023-06-10T01:26:22;11.73;;;6.97;;
27383;SDS011;14851;51.166;4.760;2023-06-10T01:29:03;10.07;;;7.28;;
27383;SDS011;14851;51.166;4.760;2023-06-10T01:32:08;8.07;;;7.22;;
27383;SDS011;14851;51.166;4.760;2023-06-10T01:34:44;9.32;;;6.88;;
27383;SDS011;14851;51.166;4.760;2023-06-10T01:37:15;8.45;;;7.53;;
27383;SDS011;14851;51.166;4.760;2023-06-10T01:39:43;8.70;;;7.45;;
27383;SDS011;14851;51.166;4.760;2023-06-10T01:42:12;8.50;;;7.60;;
27383;SDS011;14851;51.166;4.760;2023-06-10T01:44:39;10.73;;;7.60;;
27383;SDS011;14851;51.166;4.760;2023-06-10T01:47:07;9.07;;;7.90;;
27383;SDS011;14851;51.166;4.760;2023-06-10T01:49:34;10.25;;;7.70;;
27383;SDS011;14851;51.166;4.760;2023-06-10T01:52:03;10.40;;;7.65;;
27383;SDS011;14851;51.166;4.760;2023-06-10T01:54:32;10.50;;;7.82;;
27383;SDS011;14851;51.166;4.760;2023-06-10T01:57:00;10.90;;;8.00;;
27383;SDS011;14851;51.166;4.760;2023-06-10T01:59:27;10.70;;;8.35;;
27383;SDS011;14851;51.166;4.760;2023-06-10T02:01:59;10.70;;;8.00;;
27383;SDS011;14851;51.166;4.760;2023-06-10T02:04:25;11.25;;;8.23;;
27383;SDS011;14851;51.166;4.760;2023-06-10T02:06:51;8.50;;;7.68;;
27383;SDS011;14851;51.166;4.760;2023-06-10T02:09:21;11.43;;;7.82;;
27383;SDS011;14851;51.166;4.760;2023-06-10T02:11:53;9.93;;;8.32;;
27383;SDS011;14851;51.166;4.760;2023-06-10T02:14:23;8.60;;;7.75;;
27383;SDS011;14851;51.166;4.760;2023-06-10T02:16:51;10.63;;;8.32;;
27383;SDS011;14851;51.166;4.760;2023-06-10T02:19:24;11.77;;;8.02;;
27383;SDS011;14851;51.166;4.760;2023-06-10T02:21:51;9.02;;;8.05;;
27383;SDS011;14851;51.166;4.760;2023-06-10T02:24:20;11.30;;;8.60;;
27383;SDS011;14851;51.166;4.760;2023-06-10T02:26:46;11.82;;;8.10;;
27383;SDS011;14851;51.166;4.760;2023-06-10T02:29:13;9.23;;;8.30;;
27383;SDS011;14851;51.166;4.760;2023-06-10T02:31:39;10.95;;;8.63;;
27383;SDS011;14851;51.166;4.760;2023-06-10T02:34:06;11.25;;;8.38;;
27383;SDS011;14851;51.166;4.760;2023-06-10T02:36:32;11.25;;;8.23;;
27383;SDS011;14851;51.166;4.760;2023-06-10T02:39:01;9.07;;;8.18;;
27383;SDS011;14851;51.166;4.760;2023-06-10T02:41:28;9.50;;;8.35;;
27383;SDS011;14851;51.166;4.760;2023-06-10T02:43:54;14.45;;;8.77;;
27383;SDS011;14851;51.166;4.760;2023-06-10T02:46:23;12.57;;;9.43;;
27383;SDS011;14851;51.166;4.760;2023-06-10T02:48:51;9.55;;;8.48;;
27383;SDS011;14851;51.166;4.760;2023-06-10T02:51:20;14.63;;;9.65;;
27383;SDS011;14851;51.166;4.760;2023-06-10T02:53:54;10.45;;;8.93;;
27383;SDS011;14851;51.166;4.760;2023-06-10T02:56:20;11.77;;;9.05;;
27383;SDS011;14851;51.166;4.760;2023-06-10T02:58:50;11.48;;;8.70;;
27383;SDS011;14851;51.166;4.760;2023-06-10T03:01:17;12.70;;;9.57;;
27383;SDS011;14851;51.166;4.760;2023-06-10T03:03:54;10.07;;;8.68;;
27383;SDS011;14851;51.166;4.760;2023-06-10T03:06:21;11.13;;;8.30;;
27383;SDS011;14851;51.166;4.760;2023-06-10T03:08:56;12.10;;;9.07;;
27383;SDS011;14851;51.166;4.760;2023-06-10T03:11:22;14.82;;;8.43;;
27383;SDS011;14851;51.166;4.760;2023-06-10T03:13:49;12.43;;;9.23;;
27383;SDS011;14851;51.166;4.760;2023-06-10T03:16:17;11.32;;;8.57;;
27383;SDS011;14851;51.166;4.760;2023-06-10T03:18:44;14.02;;;9.77;;
27383;SDS011;14851;51.166;4.760;2023-06-10T03:21:10;15.30;;;9.70;;
27383;SDS011;14851;51.166;4.760;2023-06-10T03:23:42;10.13;;;9.07;;
27383;SDS011;14851;51.166;4.760;2023-06-10T03:26:11;9.48;;;8.48;;
27383;SDS011;14851;51.166;4.760;2023-06-10T03:28:43;12.27;;;10.00;;
27383;SDS011;14851;51.166;4.760;2023-06-10T03:31:09;12.85;;;8.80;;
27383;SDS011;14851;51.166;4.760;2023-06-10T03:33:37;11.07;;;9.85;;
27383;SDS011;14851;51.166;4.760;2023-06-10T03:36:05;12.88;;;9.07;;
27383;SDS011;14851;51.166;4.760;2023-06-10T03:38:33;9.80;;;8.75;;
27383;SDS011;14851;51.166;4.760;2023-06-10T03:40:59;10.93;;;8.82;;
27383;SDS011;14851;51.166;4.760;2023-06-10T03:43:25;10.00;;;8.93;;
27383;SDS011;14851;51.166;4.760;2023-06-10T03:45:53;10.77;;;9.68;;
27383;SDS011;14851;51.166;4.760;2023-06-10T03:48:19;9.52;;;8.48;;
27383;SDS011;14851;51.166;4.760;2023-06-10T03:50:49;9.93;;;8.98;;
27383;SDS011;14851;51.166;4.760;2023-06-10T03:53:19;11.57;;;9.45;;
27383;SDS011;14851;51.166;4.760;2023-06-10T03:55:46;15.40;;;9.27;;
27383;SDS011;14851;51.166;4.760;2023-06-10T03:58:14;11.20;;;9.77;;
27383;SDS011;14851;51.166;4.760;2023-06-10T04:00:41;14.95;;;9.90;;
27383;SDS011;14851;51.166;4.760;2023-06-10T04:03:08;12.48;;;9.77;;
27383;SDS011;14851;51.166;4.760;2023-06-10T04:05:39;12.82;;;9.98;;
27383;SDS011;14851;51.166;4.760;2023-06-10T04:08:05;11.00;;;9.63;;
27383;SDS011;14851;51.166;4.760;2023-06-10T04:10:32;10.27;;;9.02;;
27383;SDS011;14851;51.166;4.760;2023-06-10T04:13:01;12.35;;;9.23;;
27383;SDS011;14851;51.166;4.760;2023-06-10T04:15:32;11.82;;;9.60;;
27383;SDS011;14851;51.166;4.760;2023-06-10T04:18:02;12.05;;;9.63;;
27383;SDS011;14851;51.166;4.760;2023-06-10T04:20:28;13.52;;;9.70;;
27383;SDS011;14851;51.166;4.760;2023-06-10T04:22:54;12.10;;;9.35;;
27383;SDS011;14851;51.166;4.760;2023-06-10T04:25:22;11.02;;;9.50;;
27383;SDS011;14851;51.166;4.760;2023-06-10T04:27:49;10.27;;;9.27;;
27383;SDS011;14851;51.166;4.760;2023-06-10T04:30:16;12.25;;;9.23;;
27383;SDS011;14851;51.166;4.760;2023-06-10T04:32:43;11.45;;;9.75;;
27383;SDS011;14851;51.166;4.760;2023-06-10T04:35:14;12.00;;;9.35;;
27383;SDS011;14851;51.166;4.760;2023-06-10T04:37:41;11.02;;;9.52;;
27383;SDS011;14851;51.166;4.760;2023-06-10T04:40:09;10.32;;;9.27;;
27383;SDS011;14851;51.166;4.760;2023-06-10T04:42:35;11.48;;;9.05;;
27383;SDS011;14851;51.166;4.760;2023-06-10T04:45:01;12.57;;;10.23;;
27383;SDS011;14851;51.166;4.760;2023-06-10T04:47:29;10.27;;;8.63;;
27383;SDS011;14851;51.166;4.760;2023-06-10T04:49:59;11.55;;;10.10;;
27383;SDS011;14851;51.166;4.760;2023-06-10T04:52:28;11.07;;;9.68;;
27383;SDS011;14851;51.166;4.760;2023-06-10T04:54:54;10.77;;;9.65;;
27383;SDS011;14851;51.166;4.760;2023-06-10T04:57:22;11.45;;;10.25;;
27383;SDS011;14851;51.166;4.760;2023-06-10T04:59:49;11.68;;;10.38;;
27383;SDS011;14851;51.166;4.760;2023-06-10T05:02:15;14.02;;;9.77;;
27383;SDS011;14851;51.166;4.760;2023-06-10T05:04:41;10.73;;;9.63;;
27383;SDS011;14851;51.166;4.760;2023-06-10T05:07:07;11.45;;;10.35;;
27383;SDS011;14851;51.166;4.760;2023-06-10T05:09:33;13.13;;;11.05;;
27383;SDS011;14851;51.166;4.760;2023-06-10T05:11:59;11.85;;;10.32;;
27383;SDS011;14851;51.166;4.760;2023-06-10T05:14:25;11.00;;;9.65;;
27383;SDS011;14851;51.166;4.760;2023-06-10T05:16:53;11.50;;;10.30;;
27383;SDS011;14851;51.166;4.760;2023-06-10T05:19:19;13.55;;;10.77;;
27383;SDS011;14851;51.166;4.760;2023-06-10T05:21:47;15.55;;;10.27;;
27383;SDS011;14851;51.166;4.760;2023-06-10T05:24:13;13.32;;;10.88;;
27383;SDS011;14851;51.166;4.760;2023-06-10T05:26:39;13.30;;;10.27;;
27383;SDS011;14851;51.166;4.760;2023-06-10T05:29:07;12.77;;;11.30;;
27383;SDS011;14851;51.166;4.760;2023-06-10T05:31:34;13.52;;;10.52;;
27383;SDS011;14851;51.166;4.760;2023-06-10T05:34:02;16.08;;;10.95;;
27383;SDS011;14851;51.166;4.760;2023-06-10T05:36:30;10.70;;;9.60;;
27383;SDS011;14851;51.166;4.760;2023-06-10T05:38:56;11.80;;;10.57;;
27383;SDS011;14851;51.166;4.760;2023-06-10T05:41:26;14.07;;;10.90;;
27383;SDS011;14851;51.166;4.760;2023-06-10T05:43:52;11.55;;;10.35;;
27383;SDS011;14851;51.166;4.760;2023-06-10T05:46:19;12.55;;;11.15;;
27383;SDS011;14851;51.166;4.760;2023-06-10T05:48:47;13.30;;;11.00;;
27383;SDS011;14851;51.166;4.760;2023-06-10T05:51:15;12.82;;;10.52;;
27383;SDS011;14851;51.166;4.760;2023-06-10T05:53:41;11.02;;;10.02;;
27383;SDS011;14851;51.166;4.760;2023-06-10T05:56:07;11.50;;;10.32;;
27383;SDS011;14851;51.166;4.760;2023-06-10T05:58:36;13.38;;;10.43;;
27383;SDS011;14851;51.166;4.760;2023-06-10T06:01:02;10.65;;;9.57;;
27383;SDS011;14851;51.166;4.760;2023-06-10T06:03:27;12.02;;;9.57;;
27383;SDS011;14851;51.166;4.760;2023-06-10T06:05:53;11.10;;;9.98;;
27383;SDS011;14851;51.166;4.760;2023-06-10T06:08:22;9.93;;;8.93;;
27383;SDS011;14851;51.166;4.760;2023-06-10T06:10:48;12.30;;;8.82;;
27383;SDS011;14851;51.166;4.760;2023-06-10T06:13:14;16.38;;;9.45;;
27383;SDS011;14851;51.166;4.760;2023-06-10T06:15:40;12.45;;;9.30;;
27383;SDS011;14851;51.166;4.760;2023-06-10T06:18:08;12.65;;;9.15;;
27383;SDS011;14851;51.166;4.760;2023-06-10T06:20:37;9.40;;;8.43;;
27383;SDS011;14851;51.166;4.760;2023-06-10T06:23:06;10.20;;;9.15;;
27383;SDS011;14851;51.166;4.760;2023-06-10T06:25:38;8.27;;;6.75;;
27383;SDS011;14851;51.166;4.760;2023-06-10T06:28:07;10.95;;;8.75;;
27383;SDS011;14851;51.166;4.760;2023-06-10T06:30:35;10.57;;;8.32;;
27383;SDS011;14851;51.166;4.760;2023-06-10T06:33:03;10.00;;;8.35;;
27383;SDS011;14851;51.166;4.760;2023-06-10T06:35:33;10.32;;;8.05;;
27383;SDS011;14851;51.166;4.760;2023-06-10T06:37:59;9.90;;;7.72;;
27383;SDS011;14851;51.166;4.760;2023-06-10T06:40:28;8.07;;;6.63;;
27383;SDS011;14851;51.166;4.760;2023-06-10T06:42:54;7.18;;;6.45;;
27383;SDS011;14851;51.166;4.760;2023-06-10T06:45:35;9.68;;;7.47;;
27383;SDS011;14851;51.166;4.760;2023-06-10T06:48:04;9.57;;;6.55;;
27383;SDS011;14851;51.166;4.760;2023-06-10T06:50:30;6.60;;;5.53;;
27383;SDS011;14851;51.166;4.760;2023-06-10T06:52:56;11.63;;;7.93;;
27383;SDS011;14851;51.166;4.760;2023-06-10T06:55:26;7.20;;;6.10;;
27383;SDS011;14851;51.166;4.760;2023-06-10T06:57:53;8.85;;;6.13;;
27383;SDS011;14851;51.166;4.760;2023-06-10T07:00:19;7.88;;;5.95;;
27383;SDS011;14851;51.166;4.760;2023-06-10T07:02:45;9.73;;;6.30;;
27383;SDS011;14851;51.166;4.760;2023-06-10T07:05:11;6.85;;;5.28;;
27383;SDS011;14851;51.166;4.760;2023-06-10T07:07:37;6.63;;;5.88;;
27383;SDS011;14851;51.166;4.760;2023-06-10T07:10:03;8.45;;;6.00;;
27383;SDS011;14851;51.166;4.760;2023-06-10T07:12:31;5.70;;;5.15;;
27383;SDS011;14851;51.166;4.760;2023-06-10T07:14:58;7.28;;;5.63;;
27383;SDS011;14851;51.166;4.760;2023-06-10T07:17:26;7.55;;;4.65;;
27383;SDS011;14851;51.166;4.760;2023-06-10T07:19:52;8.35;;;5.93;;
27383;SDS011;14851;51.166;4.760;2023-06-10T07:22:18;8.80;;;5.70;;
27383;SDS011;14851;51.166;4.760;2023-06-10T07:24:44;8.15;;;5.57;;
27383;SDS011;14851;51.166;4.760;2023-06-10T07:27:13;9.05;;;6.47;;
27383;SDS011;14851;51.166;4.760;2023-06-10T07:29:38;8.15;;;5.95;;
27383;SDS011;14851;51.166;4.760;2023-06-10T07:32:05;5.00;;;4.60;;
27383;SDS011;14851;51.166;4.760;2023-06-10T07:34:31;6.78;;;5.53;;
27383;SDS011;14851;51.166;4.760;2023-06-10T07:36:59;6.00;;;5.00;;
27383;SDS011;14851;51.166;4.760;2023-06-10T07:39:28;5.93;;;5.30;;
27383;SDS011;14851;51.166;4.760;2023-06-10T07:41:56;6.07;;;5.47;;
27383;SDS011;14851;51.166;4.760;2023-06-10T07:44:23;6.82;;;5.60;;
27383;SDS011;14851;51.166;4.760;2023-06-10T07:46:49;7.32;;;6.03;;
27383;SDS011;14851;51.166;4.760;2023-06-10T07:49:15;7.95;;;5.50;;
27383;SDS011;14851;51.166;4.760;2023-06-10T07:51:53;7.97;;;4.53;;
27383;SDS011;14851;51.166;4.760;2023-06-10T07:54:23;6.07;;;5.47;;
27383;SDS011;14851;51.166;4.760;2023-06-10T07:56:52;5.78;;;4.68;;
27383;SDS011;14851;51.166;4.760;2023-06-10T07:59:18;6.38;;;5.13;;
27383;SDS011;14851;51.166;4.760;2023-06-10T08:01:44;6.32;;;4.90;;
27383;SDS011;14851;51.166;4.760;2023-06-10T08:04:12;12.80;;;5.35;;
27383;SDS011;14851;51.166;4.760;2023-06-10T08:06:39;5.65;;;4.47;;
27383;SDS011;14851;51.166;4.760;2023-06-10T08:09:05;5.63;;;5.05;;
27383;SDS011;14851;51.166;4.760;2023-06-10T08:11:30;11.48;;;5.78;;
27383;SDS011;14851;51.166;4.760;2023-06-10T08:13:59;5.30;;;4.68;;
27383;SDS011;14851;51.166;4.760;2023-06-10T08:16:25;7.60;;;4.72;;
27383;SDS011;14851;51.166;4.760;2023-06-10T08:18:51;8.40;;;5.60;;
27383;SDS011;14851;51.166;4.760;2023-06-10T08:21:19;7.68;;;5.47;;
27383;SDS011;14851;51.166;4.760;2023-06-10T08:23:45;5.03;;;4.63;;
27383;SDS011;14851;51.166;4.760;2023-06-10T08:26:12;5.50;;;4.63;;
27383;SDS011;14851;51.166;4.760;2023-06-10T08:28:38;9.95;;;5.90;;
27383;SDS011;14851;51.166;4.760;2023-06-10T08:31:04;4.63;;;3.88;;
27383;SDS011;14851;51.166;4.760;2023-06-10T08:33:30;4.18;;;3.75;;
27383;SDS011;14851;51.166;4.760;2023-06-10T08:35:58;5.65;;;5.00;;
27383;SDS011;14851;51.166;4.760;2023-06-10T08:38:24;5.13;;;3.38;;
27383;SDS011;14851;51.166;4.760;2023-06-10T08:40:53;7.72;;;5.65;;
27383;SDS011;14851;51.166;4.760;2023-06-10T08:43:29;3.88;;;3.25;;
27383;SDS011;14851;51.166;4.760;2023-06-10T08:46:01;8.27;;;5.75;;
27383;SDS011;14851;51.166;4.760;2023-06-10T08:48:30;5.80;;;5.18;;
27383;SDS011;14851;51.166;4.760;2023-06-10T08:51:01;4.55;;;3.50;;
27383;SDS011;14851;51.166;4.760;2023-06-10T08:53:31;5.18;;;4.35;;
27383;SDS011;14851;51.166;4.760;2023-06-10T08:56:01;6.68;;;5.53;;
27383;SDS011;14851;51.166;4.760;2023-06-10T08:58:29;3.28;;;2.97;;
27383;SDS011;14851;51.166;4.760;2023-06-10T09:00:58;4.00;;;2.90;;
27383;SDS011;14851;51.166;4.760;2023-06-10T09:03:25;4.45;;;3.80;;
27383;SDS011;14851;51.166;4.760;2023-06-10T09:05:51;10.05;;;5.40;;
27383;SDS011;14851;51.166;4.760;2023-06-10T09:08:18;6.95;;;5.32;;
27383;SDS011;14851;51.166;4.760;2023-06-10T09:10:48;3.55;;;3.25;;
27383;SDS011;14851;51.166;4.760;2023-06-10T09:13:17;8.18;;;5.25;;
27383;SDS011;14851;51.166;4.760;2023-06-10T09:15:46;3.88;;;3.17;;
27383;SDS011;14851;51.166;4.760;2023-06-10T09:18:14;5.85;;;4.20;;
27383;SDS011;14851;51.166;4.760;2023-06-10T09:20:43;4.65;;;3.58;;
27383;SDS011;14851;51.166;4.760;2023-06-10T09:23:15;8.93;;;5.25;;
27383;SDS011;14851;51.166;4.760;2023-06-10T09:25:41;3.90;;;3.50;;
27383;SDS011;14851;51.166;4.760;2023-06-10T09:28:13;5.40;;;3.20;;
27383;SDS011;14851;51.166;4.760;2023-06-10T09:30:40;4.32;;;3.40;;
27383;SDS011;14851;51.166;4.760;2023-06-10T09:33:13;6.13;;;3.53;;
27383;SDS011;14851;51.166;4.760;2023-06-10T09:35:48;5.60;;;3.40;;
27383;SDS011;14851;51.166;4.760;2023-06-10T09:38:24;8.30;;;4.15;;
27383;SDS011;14851;51.166;4.760;2023-06-10T09:40:56;6.55;;;4.13;;
27383;SDS011;14851;51.166;4.760;2023-06-10T09:43:38;7.32;;;5.28;;
27383;SDS011;14851;51.166;4.760;2023-06-10T09:46:06;7.45;;;4.93;;
27383;SDS011;14851;51.166;4.760;2023-06-10T09:48:37;4.10;;;3.70;;
27383;SDS011;14851;51.166;4.760;2023-06-10T09:51:11;6.72;;;5.25;;
27383;SDS011;14851;51.166;4.760;2023-06-10T09:56:04;5.55;;;3.72;;
27383;SDS011;14851;51.166;4.760;2023-06-10T09:58:37;5.88;;;4.30;;
27383;SDS011;14851;51.166;4.760;2023-06-10T10:01:09;4.07;;;3.63;;
27383;SDS011;14851;51.166;4.760;2023-06-10T10:06:12;4.97;;;4.47;;
27383;SDS011;14851;51.166;4.760;2023-06-10T10:08:40;6.38;;;5.28;;
27383;SDS011;14851;51.166;4.760;2023-06-10T10:11:05;5.32;;;4.35;;
27383;SDS011;14851;51.166;4.760;2023-06-10T10:13:33;7.00;;;5.60;;
27383;SDS011;14851;51.166;4.760;2023-06-10T10:16:09;5.82;;;4.28;;
27383;SDS011;14851;51.166;4.760;2023-06-10T10:18:39;5.90;;;4.30;;
27383;SDS011;14851;51.166;4.760;2023-06-10T10:21:12;5.15;;;4.47;;
27383;SDS011;14851;51.166;4.760;2023-06-10T10:23:44;6.50;;;3.65;;
27383;SDS011;14851;51.166;4.760;2023-06-10T10:26:19;3.45;;;2.88;;
27383;SDS011;14851;51.166;4.760;2023-06-10T10:29:05;3.63;;;3.00;;
27383;SDS011;14851;51.166;4.760;2023-06-10T10:31:44;7.03;;;4.72;;
27383;SDS011;14851;51.166;4.760;2023-06-10T10:34:13;5.93;;;4.40;;
27383;SDS011;14851;51.166;4.760;2023-06-10T10:36:45;6.35;;;4.38;;
27383;SDS011;14851;51.166;4.760;2023-06-10T10:39:13;8.77;;;5.80;;
27383;SDS011;14851;51.166;4.760;2023-06-10T10:41:43;7.75;;;4.88;;
27383;SDS011;14851;51.166;4.760;2023-06-10T10:44:10;6.18;;;4.32;;
27383;SDS011;14851;51.166;4.760;2023-06-10T10:46:48;5.90;;;4.30;;
27383;SDS011;14851;51.166;4.760;2023-06-10T10:49:15;5.88;;;3.33;;
27383;SDS011;14851;51.166;4.760;2023-06-10T10:51:59;4.22;;;2.47;;
27383;SDS011;14851;51.166;4.760;2023-06-10T10:54:31;7.20;;;4.35;;
27383;SDS011;14851;51.166;4.760;2023-06-10T10:57:14;4.93;;;4.18;;
27383;SDS011;14851;51.166;4.760;2023-06-10T11:02:56;6.38;;;3.85;;
27383;SDS011;14851;51.166;4.760;2023-06-10T11:05:07;5.38;;;4.00;;
27383;SDS011;14851;51.166;4.760;2023-06-10T11:07:34;10.05;;;4.82;;
27383;SDS011;14851;51.166;4.760;2023-06-10T11:12:40;7.22;;;4.43;;
27383;SDS011;14851;51.166;4.760;2023-06-10T11:15:06;6.35;;;5.50;;
27383;SDS011;14851;51.166;4.760;2023-06-10T11:17:32;8.15;;;5.30;;
27383;SDS011;14851;51.166;4.760;2023-06-10T11:19:58;6.53;;;4.50;;
27383;SDS011;14851;51.166;4.760;2023-06-10T11:22:27;4.05;;;3.65;;
27383;SDS011;14851;51.166;4.760;2023-06-10T11:24:53;4.18;;;2.70;;
27383;SDS011;14851;51.166;4.760;2023-06-10T11:27:20;3.13;;;2.70;;
27383;SDS011;14851;51.166;4.760;2023-06-10T11:32:33;4.30;;;3.38;;
27383;SDS011;14851;51.166;4.760;2023-06-10T11:35:00;4.75;;;3.10;;
27383;SDS011;14851;51.166;4.760;2023-06-10T11:37:29;2.40;;;2.13;;
27383;SDS011;14851;51.166;4.760;2023-06-10T11:39:55;3.30;;;2.65;;
27383;SDS011;14851;51.166;4.760;2023-06-10T11:42:22;9.90;;;4.90;;
27383;SDS011;14851;51.166;4.760;2023-06-10T11:44:58;5.97;;;3.80;;
27383;SDS011;14851;51.166;4.760;2023-06-10T11:47:29;4.70;;;3.15;;
27383;SDS011;14851;51.166;4.760;2023-06-10T11:50:03;10.68;;;4.50;;
27383;SDS011;14851;51.166;4.760;2023-06-10T11:52:52;3.03;;;2.03;;
27383;SDS011;14851;51.166;4.760;2023-06-10T11:55:21;4.97;;;3.92;;
27383;SDS011;14851;51.166;4.760;2023-06-10T11:57:49;6.25;;;3.70;;
27383;SDS011;14851;51.166;4.760;2023-06-10T12:00:23;3.55;;;3.15;;
27383;SDS011;14851;51.166;4.760;2023-06-10T12:02:59;5.40;;;4.20;;
27383;SDS011;14851;51.166;4.760;2023-06-10T12:05:25;5.80;;;4.32;;
27383;SDS011;14851;51.166;4.760;2023-06-10T12:08:07;7.28;;;4.30;;
27383;SDS011;14851;51.166;4.760;2023-06-10T12:10:38;4.68;;;4.10;;
27383;SDS011;14851;51.166;4.760;2023-06-10T12:13:09;4.55;;;3.30;;
27383;SDS011;14851;51.166;4.760;2023-06-10T12:15:37;14.20;;;4.35;;
27383;SDS011;14851;51.166;4.760;2023-06-10T12:18:03;6.90;;;4.15;;
27383;SDS011;14851;51.166;4.760;2023-06-10T12:20:30;5.53;;;4.22;;
27383;SDS011;14851;51.166;4.760;2023-06-10T12:22:58;8.23;;;4.30;;
27383;SDS011;14851;51.166;4.760;2023-06-10T12:25:28;6.43;;;5.07;;
27383;SDS011;14851;51.166;4.760;2023-06-10T12:27:55;5.75;;;5.18;;
27383;SDS011;14851;51.166;4.760;2023-06-10T12:30:24;3.65;;;3.00;;
27383;SDS011;14851;51.166;4.760;2023-06-10T12:32:52;5.25;;;3.40;;
27383;SDS011;14851;51.166;4.760;2023-06-10T12:35:23;2.88;;;2.22;;
27383;SDS011;14851;51.166;4.760;2023-06-10T12:40:37;2.78;;;2.58;;
27383;SDS011;14851;51.166;4.760;2023-06-10T12:43:20;5.63;;;3.17;;
27383;SDS011;14851;51.166;4.760;2023-06-10T12:45:48;3.80;;;2.80;;
27383;SDS011;14851;51.166;4.760;2023-06-10T12:50:54;7.55;;;4.20;;
27383;SDS011;14851;51.166;4.760;2023-06-10T12:53:24;2.97;;;2.70;;
27383;SDS011;14851;51.166;4.760;2023-06-10T12:55:52;4.72;;;2.67;;
27383;SDS011;14851;51.166;4.760;2023-06-10T12:58:20;6.05;;;4.47;;
27383;SDS011;14851;51.166;4.760;2023-06-10T13:00:47;4.05;;;3.33;;
27383;SDS011;14851;51.166;4.760;2023-06-10T13:03:16;7.13;;;4.88;;
27383;SDS011;14851;51.166;4.760;2023-06-10T13:05:44;3.95;;;3.55;;
27383;SDS011;14851;51.166;4.760;2023-06-10T13:08:11;5.15;;;3.92;;
27383;SDS011;14851;51.166;4.760;2023-06-10T13:10:38;2.42;;;2.17;;
27383;SDS011;14851;51.166;4.760;2023-06-10T13:13:06;3.83;;;2.88;;
27383;SDS011;14851;51.166;4.760;2023-06-10T13:15:35;5.97;;;3.88;;
27383;SDS011;14851;51.166;4.760;2023-06-10T13:18:11;5.22;;;4.28;;
27383;SDS011;14851;51.166;4.760;2023-06-10T13:20:37;6.88;;;4.22;;
27383;SDS011;14851;51.166;4.760;2023-06-10T13:23:06;3.33;;;2.72;;
27383;SDS011;14851;51.166;4.760;2023-06-10T13:25:35;5.22;;;3.53;;
27383;SDS011;14851;51.166;4.760;2023-06-10T13:28:10;2.70;;;2.50;;
27383;SDS011;14851;51.166;4.760;2023-06-10T13:30:41;7.20;;;4.80;;
27383;SDS011;14851;51.166;4.760;2023-06-10T13:33:07;5.78;;;3.53;;
27383;SDS011;14851;51.166;4.760;2023-06-10T13:35:33;5.18;;;4.30;;
27383;SDS011;14851;51.166;4.760;2023-06-10T13:37:59;5.50;;;4.85;;
27383;SDS011;14851;51.166;4.760;2023-06-10T13:40:25;3.58;;;3.22;;
27383;SDS011;14851;51.166;4.760;2023-06-10T13:42:50;4.03;;;3.15;;
27383;SDS011;14851;51.166;4.760;2023-06-10T13:45:17;3.63;;;2.50;;
27383;SDS011;14851;51.166;4.760;2023-06-10T13:47:43;6.55;;;4.47;;
27383;SDS011;14851;51.166;4.760;2023-06-10T13:50:09;6.45;;;4.45;;
27383;SDS011;14851;51.166;4.760;2023-06-10T13:52:38;6.55;;;4.45;;
27383;SDS011;14851;51.166;4.760;2023-06-10T13:55:04;5.13;;;4.53;;
27383;SDS011;14851;51.166;4.760;2023-06-10T13:57:30;4.65;;;4.13;;
27383;SDS011;14851;51.166;4.760;2023-06-10T13:59:59;4.57;;;3.50;;
27383;SDS011;14851;51.166;4.760;2023-06-10T14:02:25;2.80;;;2.45;;
27383;SDS011;14851;51.166;4.760;2023-06-10T14:07:21;4.68;;;3.10;;
27383;SDS011;14851;51.166;4.760;2023-06-10T14:09:47;3.50;;;3.20;;
27383;SDS011;14851;51.166;4.760;2023-06-10T14:12:18;5.57;;;3.50;;
27383;SDS011;14851;51.166;4.760;2023-06-10T14:14:44;3.85;;;2.95;;
27383;SDS011;14851;51.166;4.760;2023-06-10T14:17:10;4.90;;;3.97;;
27383;SDS011;14851;51.166;4.760;2023-06-10T14:19:38;3.60;;;3.13;;
27383;SDS011;14851;51.166;4.760;2023-06-10T14:22:05;4.00;;;2.92;;
27383;SDS011;14851;51.166;4.760;2023-06-10T14:24:32;4.50;;;2.92;;
27383;SDS011;14851;51.166;4.760;2023-06-10T14:27:01;5.78;;;3.60;;
27383;SDS011;14851;51.166;4.760;2023-06-10T14:29:27;4.25;;;3.17;;
27383;SDS011;14851;51.166;4.760;2023-06-10T14:31:54;4.18;;;3.63;;
27383;SDS011;14851;51.166;4.760;2023-06-10T14:34:20;5.68;;;3.63;;
27383;SDS011;14851;51.166;4.760;2023-06-10T14:36:49;3.20;;;2.90;;
27383;SDS011;14851;51.166;4.760;2023-06-10T14:39:16;3.53;;;2.60;;
27383;SDS011;14851;51.166;4.760;2023-06-10T14:41:45;7.13;;;4.30;;
27383;SDS011;14851;51.166;4.760;2023-06-10T14:44:11;8.10;;;3.33;;
27383;SDS011;14851;51.166;4.760;2023-06-10T14:46:37;5.97;;;3.90;;
27383;SDS011;14851;51.166;4.760;2023-06-10T14:49:05;4.70;;;3.00;;
27383;SDS011;14851;51.166;4.760;2023-06-10T14:51:32;9.43;;;4.90;;
27383;SDS011;14851;51.166;4.760;2023-06-10T14:54:00;5.63;;;3.42;;
27383;SDS011;14851;51.166;4.760;2023-06-10T14:56:28;5.35;;;4.07;;
27383;SDS011;14851;51.166;4.760;2023-06-10T14:58:54;5.93;;;3.50;;
27383;SDS011;14851;51.166;4.760;2023-06-10T15:01:20;16.25;;;3.40;;
27383;SDS011;14851;51.166;4.760;2023-06-10T15:03:46;7.13;;;3.95;;
27383;SDS011;14851;51.166;4.760;2023-06-10T15:06:12;4.65;;;3.67;;
27383;SDS011;14851;51.166;4.760;2023-06-10T15:11:08;6.47;;;3.28;;
27383;SDS011;14851;51.166;4.760;2023-06-10T15:13:33;4.07;;;3.30;;
27383;SDS011;14851;51.166;4.760;2023-06-10T15:15:59;4.30;;;3.17;;